Evergem / Belzele Heliport

EBEB · Oost-Vlaanderen, Flanders, 比利时

使用的METAR站距离机场39 km。
罗盘
风向 的 风向 的 风向 到 风向 360° 直升机
风: 8 kt, 3 beaufort
0 ft 1.000 2.000 3.000 4.000 5.000
未检测到零云
METAR EHFS 252025Z AUTO 36008KT 330V030 9999 NCD 21/17 Q1013

METAR Evergem / Belzele Heliport - EBEB

Evergem / Belzele Heliport是,比利时中的直升机场。 该机场位于纬度51,10083和经度3,65361。 本场的ICAO机场代码为EBEB。 机场在Amsterdam FIR中。

该航空气象观测是针对Vlissingen在2024年6月25日 22:25, 当地时间进行的。

机场观察

风向为360°,速度为8 kt。 风向在330°和030°之间变化。

可见度为10 km 或者更多。

有未检测到零云。 没有观察到天花板。

温度和风寒是21 °C。 露点为17 °C,相对湿度为78%。 海平面上的气压为1013 hPa (QNH)。

白天

今天,太阳从05:31升起,在22:04降落。 这适用于Evergem / Belzele Heliport,世界夏令时可能有所不同。 当地时间与世界标准时间之间的时差为+2 小时。 夏令时目前正在进行中。

公司介绍

我们没有关于这个机场的公司信息。

体会

到Vliegles.nl去找飞行课程,跳伞和其他飞行体验。 浏览页面,了解Evergem / Belzele Heliport附近所有可用的活动。 你也可以使用搜索功能来寻找你所在地附近的特定飞行课程、跳伞或其他飞行体验。

乌云

- NCD 未检测到零云

温度 & 天气

温度 21 °C
露点 17 °C
相对湿度 78%
Kp-index 2 (0-9)

白天

日出
05:30 (6:43)
中午
13:48
日落
22:06

小工具

你想在你的网站上有一个关于Evergem / Belzele Heliport的当前航空天气(METAR)的小部件吗?

显示HTML代码
报告变更